Time;durP1;ratioP1;P1;durP2;ratioP2;P2;SDS_P1;SDS_P2;PMS_P1;PMS_P2;Temp;Humidity;BMP_temperature;BMP_pressure;BME280_temperature;BME280_humidity;BME280_pressure;Samples;Min_cycle;Max_cycle;Signal;HPM_P1;HPM_P2
2022/03/07 00:00:37;0.00;0.00;0.62;0.00;0.00;0.62;3.33;2.93;;;21.60;20.70;;;;;;2253668;61;20629;-63
2022/03/07 00:03:24;0.00;0.00;0.62;0.00;0.00;0.62;3.20;2.90;;;21.70;20.80;;;;;;2253012;61;20391;-63
2022/03/07 00:06:09;0.00;0.00;0.62;0.00;0.00;0.62;3.80;2.80;;;21.60;20.60;;;;;;2253985;61;20376;-62
2022/03/07 00:08:55;0.00;0.00;0.62;0.00;0.00;0.62;4.23;3.07;;;21.70;20.70;;;;;;2253549;61;20407;-62
2022/03/07 00:11:41;0.00;0.00;0.62;0.00;0.00;0.62;4.30;3.10;;;21.60;20.50;;;;;;2253413;61;20356;-63
2022/03/07 00:14:25;0.00;0.00;0.62;0.00;0.00;0.62;3.30;2.93;;;21.60;20.50;;;;;;2253721;61;20367;-62
2022/03/07 00:17:10;0.00;0.00;0.62;0.00;0.00;0.62;3.80;3.50;;;21.60;20.40;;;;;;2253537;61;20355;-63
2022/03/07 00:19:54;0.00;0.00;0.62;0.00;0.00;0.62;4.00;3.20;;;21.60;20.30;;;;;;2253838;61;20387;-63
2022/03/07 00:22:40;0.00;0.00;0.62;0.00;0.00;0.62;4.10;3.10;;;21.60;20.30;;;;;;2253512;61;20422;-63
2022/03/07 00:25:25;0.00;0.00;0.62;0.00;0.00;0.62;4.13;3.30;;;21.50;20.20;;;;;;2253460;61;20485;-63
2022/03/07 00:28:09;0.00;0.00;0.62;0.00;0.00;0.62;3.30;2.97;;;21.50;20.10;;;;;;2253786;61;20388;-63
2022/03/07 00:30:54;0.00;0.00;0.62;0.00;0.00;0.62;4.43;4.03;;;21.50;20.10;;;;;;2253095;61;20407;-62
2022/03/07 00:33:39;0.00;0.00;0.62;0.00;0.00;0.62;3.73;3.37;;;21.50;20.10;;;;;;2253553;61;20375;-62
2022/03/07 00:36:25;0.00;0.00;0.62;0.00;0.00;0.62;3.50;3.20;;;21.50;20.10;;;;;;2253709;61;20363;-63
2022/03/07 00:39:11;0.00;0.00;0.62;0.00;0.00;0.62;5.70;3.80;;;21.40;19.90;;;;;;2253586;61;20599;-63
2022/03/07 00:41:56;0.00;0.00;0.62;0.00;0.00;0.62;4.23;3.80;;;21.40;19.80;;;;;;2253067;61;20387;-62
2022/03/07 00:44:42;0.00;0.00;0.62;0.00;0.00;0.62;4.27;3.60;;;21.40;19.80;;;;;;2253458;61;20359;-62
2022/03/07 00:47:26;0.00;0.00;0.62;0.00;0.00;0.62;4.00;3.57;;;21.40;19.80;;;;;;2253218;61;20459;-63
2022/03/07 00:50:11;0.00;0.00;0.62;0.00;0.00;0.62;3.43;3.13;;;21.40;19.80;;;;;;2253850;61;20407;-62
2022/03/07 00:52:55;0.00;0.00;0.62;0.00;0.00;0.62;4.23;3.83;;;21.30;19.70;;;;;;2253451;61;20606;-63
2022/03/07 00:55:41;0.00;0.00;0.62;0.00;0.00;0.62;4.83;4.03;;;21.30;19.70;;;;;;2253303;61;20344;-62
2022/03/07 00:58:27;0.00;0.00;0.62;0.00;0.00;0.62;5.50;4.87;;;21.30;19.70;;;;;;2253419;61;20363;-63
2022/03/07 01:01:12;0.00;0.00;0.62;0.00;0.00;0.62;4.77;4.37;;;21.30;19.70;;;;;;2253423;61;20360;-62
2022/03/07 01:03:57;0.00;0.00;0.62;0.00;0.00;0.62;4.90;4.20;;;21.20;19.60;;;;;;2253147;61;20712;-63
2022/03/07 01:06:41;0.00;0.00;0.62;0.00;0.00;0.62;5.10;4.60;;;21.20;19.60;;;;;;2253393;61;20403;-61
2022/03/07 01:09:26;0.00;0.00;0.62;0.00;0.00;0.62;5.50;5.00;;;21.20;19.60;;;;;;2252781;61;20739;-62
2022/03/07 01:12:12;0.00;0.00;0.62;0.00;0.00;0.62;5.20;4.70;;;21.20;19.60;;;;;;2253628;61;20395;-63
2022/03/07 01:14:56;0.00;0.00;0.62;0.00;0.00;0.62;6.07;5.47;;;21.20;19.60;;;;;;2253447;61;20450;-63
2022/03/07 01:17:41;0.00;0.00;0.62;0.00;0.00;0.62;5.57;4.90;;;21.10;19.50;;;;;;2252731;61;20351;-63
2022/03/07 01:20:27;0.00;0.00;0.62;0.00;0.00;0.62;5.10;4.60;;;21.10;19.50;;;;;;2253309;61;20443;-62
2022/03/07 01:23:11;0.00;0.00;0.62;0.00;0.00;0.62;5.53;5.00;;;21.10;19.50;;;;;;2252733;61;20379;-63
2022/03/07 01:25:57;0.00;0.00;0.62;0.00;0.00;0.62;6.30;5.70;;;21.00;19.50;;;;;;2253205;61;20760;-63
2022/03/07 01:28:44;0.00;0.00;0.62;0.00;0.00;0.62;5.80;5.23;;;21.00;19.40;;;;;;2252949;61;20402;-64
2022/03/07 01:31:29;0.00;0.00;0.62;0.00;0.00;0.62;7.03;5.50;;;21.00;19.50;;;;;;2253085;61;20372;-61
2022/03/07 01:34:14;0.00;0.00;0.62;0.00;0.00;0.62;6.17;5.57;;;21.00;19.50;;;;;;2253648;61;20411;-62
2022/03/07 01:36:59;0.00;0.00;0.62;0.00;0.00;0.62;5.83;5.30;;;21.00;19.50;;;;;;2253403;61;20360;-63
2022/03/07 01:39:45;0.00;0.00;0.62;0.00;0.00;0.62;5.70;5.20;;;20.90;19.40;;;;;;2252844;61;20407;-63
2022/03/07 01:42:29;0.00;0.00;0.62;0.00;0.00;0.62;5.90;5.33;;;20.90;19.40;;;;;;2253532;61;20472;-63
2022/03/07 01:45:19;0.00;0.00;0.62;0.00;0.00;0.62;6.27;4.63;;;20.90;19.40;;;;;;2252612;61;20343;-63
2022/03/07 01:48:04;0.00;0.00;0.62;0.00;0.00;0.62;5.90;5.07;;;20.80;19.30;;;;;;2253435;61;20383;-63
2022/03/07 01:50:49;0.00;0.00;0.62;0.00;0.00;0.62;5.63;5.07;;;20.80;19.30;;;;;;2253454;61;20356;-62
2022/03/07 01:53:34;0.00;0.00;0.62;0.00;0.00;0.62;6.20;5.60;;;20.80;19.30;;;;;;2252621;61;20383;-63
2022/03/07 01:56:20;0.00;0.00;0.62;0.00;0.00;0.62;5.10;4.70;;;20.80;19.30;;;;;;2253170;61;20368;-63
2022/03/07 01:59:05;0.00;0.00;0.62;0.00;0.00;0.62;5.37;4.87;;;20.80;19.30;;;;;;2253059;61;20356;-63
2022/03/07 02:01:53;0.00;0.00;0.62;0.00;0.00;0.62;6.30;5.30;;;20.70;19.30;;;;;;2252539;61;20731;-63
2022/03/07 02:04:39;0.00;0.00;0.62;0.00;0.00;0.62;5.63;4.90;;;20.70;19.30;;;;;;2253304;61;20371;-63
2022/03/07 02:07:25;0.00;0.00;0.62;0.00;0.00;0.62;5.73;4.93;;;20.70;19.30;;;;;;2252695;61;20387;-63
2022/03/07 02:10:12;0.00;0.00;0.62;0.00;0.00;0.62;6.03;4.97;;;20.70;19.30;;;;;;2252964;61;20356;-62
2022/03/07 02:12:59;0.00;0.00;0.62;0.00;0.00;0.62;5.67;5.07;;;20.60;19.20;;;;;;2252884;61;20456;-63
2022/03/07 02:15:52;0.00;0.00;0.62;0.00;0.00;0.62;5.20;4.70;;;20.60;19.20;;;;;;2252696;61;20364;-61
2022/03/07 02:18:38;0.00;0.00;0.62;0.00;0.00;0.62;4.30;3.90;;;20.60;19.20;;;;;;2253132;61;20772;-61
2022/03/07 02:21:48;0.00;0.00;0.62;0.00;0.00;0.62;4.83;4.33;;;20.60;19.20;;;;;;2253202;61;20549;-62
2022/03/07 02:24:38;0.00;0.00;0.62;0.00;0.00;0.62;5.20;4.70;;;20.50;19.10;;;;;;2252870;61;20573;-62
2022/03/07 02:27:26;0.00;0.00;0.62;0.00;0.00;0.62;5.07;4.57;;;20.50;19.10;;;;;;2253436;61;20391;-63
2022/03/07 02:30:12;0.00;0.00;0.62;0.00;0.00;0.62;5.40;4.40;;;20.50;19.10;;;;;;2253950;61;20360;-62
2022/03/07 02:32:57;0.00;0.00;0.62;0.00;0.00;0.62;5.90;5.03;;;20.50;19.10;;;;;;2253611;61;20427;-61
2022/03/07 02:35:43;0.00;0.00;0.62;0.00;0.00;0.62;5.60;4.50;;;20.40;19.10;;;;;;2253518;61;20359;-64
2022/03/07 02:38:28;0.00;0.00;0.62;0.00;0.00;0.62;5.33;4.63;;;20.40;19.10;;;;;;2253118;61;20715;-63
2022/03/07 02:41:15;0.00;0.00;0.62;0.00;0.00;0.62;4.70;4.30;;;20.40;19.10;;;;;;2253799;61;20359;-63
2022/03/07 02:43:59;0.00;0.00;0.62;0.00;0.00;0.62;4.50;4.10;;;20.40;19.10;;;;;;2253878;61;20383;-63
2022/03/07 02:46:44;0.00;0.00;0.62;0.00;0.00;0.62;4.60;4.20;;;20.40;19.10;;;;;;2253331;61;20383;-63
2022/03/07 02:49:29;0.00;0.00;0.62;0.00;0.00;0.62;5.30;4.73;;;20.30;19.10;;;;;;2254239;61;20359;-61
2022/03/07 02:52:14;0.00;0.00;0.62;0.00;0.00;0.62;5.33;4.27;;;20.30;19.00;;;;;;2253326;61;20407;-63
2022/03/07 02:54:59;0.00;0.00;0.62;0.00;0.00;0.62;4.77;3.90;;;20.30;19.00;;;;;;2253949;61;20460;-63
2022/03/07 02:57:44;0.00;0.00;0.62;0.00;0.00;0.62;5.40;4.90;;;20.30;19.00;;;;;;2253762;61;20359;-63
2022/03/07 03:00:29;0.00;0.00;0.62;0.00;0.00;0.62;4.63;4.23;;;20.30;19.00;;;;;;2253616;61;20360;-60
2022/03/07 03:03:14;0.00;0.00;0.62;0.00;0.00;0.62;4.10;3.70;;;20.30;19.00;;;;;;2254066;61;20499;-63
2022/03/07 03:05:59;0.00;0.00;0.62;0.00;0.00;0.62;5.40;4.90;;;20.30;19.10;;;;;;2253857;61;20356;-63
2022/03/07 03:08:43;0.00;0.00;0.62;0.00;0.00;0.62;4.83;4.40;;;20.20;19.00;;;;;;2253462;61;20661;-63
2022/03/07 03:11:28;0.00;0.00;0.62;0.00;0.00;0.62;5.43;4.37;;;20.20;19.00;;;;;;2253650;61;20403;-62
2022/03/07 03:14:14;0.00;0.00;0.62;0.00;0.00;0.62;5.27;4.77;;;20.20;19.00;;;;;;2253735;61;20360;-63
2022/03/07 03:16:58;0.00;0.00;0.62;0.00;0.00;0.62;4.70;4.30;;;20.20;19.00;;;;;;2253772;61;20367;-63
2022/03/07 03:19:42;0.00;0.00;0.62;0.00;0.00;0.62;5.30;4.80;;;20.20;19.00;;;;;;2253883;61;20402;-62
2022/03/07 03:22:27;0.00;0.00;0.62;0.00;0.00;0.62;5.20;4.60;;;20.10;19.00;;;;;;2253395;61;20408;-63
2022/03/07 03:25:15;0.00;0.00;0.62;0.00;0.00;0.62;5.97;5.20;;;20.10;19.00;;;;;;2253939;61;20383;-62
2022/03/07 03:27:59;0.00;0.00;0.62;0.00;0.00;0.62;5.00;4.53;;;20.20;19.10;;;;;;2253882;61;20419;-61
2022/03/07 03:30:45;0.00;0.00;0.62;0.00;0.00;0.62;5.40;4.53;;;20.10;19.00;;;;;;2253564;61;20356;-61
2022/03/07 03:33:30;0.00;0.00;0.62;0.00;0.00;0.62;5.27;4.77;;;20.10;19.00;;;;;;2253897;61;20392;-62
2022/03/07 03:36:14;0.00;0.00;0.62;0.00;0.00;0.62;4.50;4.10;;;20.10;19.00;;;;;;2253478;61;20398;-63
2022/03/07 03:38:59;0.00;0.00;0.62;0.00;0.00;0.62;5.07;4.20;;;20.10;19.00;;;;;;2253562;61;20364;-60
2022/03/07 03:41:43;0.00;0.00;0.62;0.00;0.00;0.62;5.60;5.10;;;20.10;19.00;;;;;;2253677;61;20344;-64
2022/03/07 03:44:28;0.00;0.00;0.62;0.00;0.00;0.62;5.87;4.93;;;20.00;19.00;;;;;;2253764;61;20372;-62
2022/03/07 03:47:14;0.00;0.00;0.62;0.00;0.00;0.62;5.87;4.90;;;20.00;19.00;;;;;;2253902;61;20516;-62
2022/03/07 03:49:58;0.00;0.00;0.62;0.00;0.00;0.62;5.30;4.80;;;20.00;19.00;;;;;;2253877;61;20472;-62
2022/03/07 03:52:43;0.00;0.00;0.62;0.00;0.00;0.62;5.00;4.40;;;20.00;19.00;;;;;;2253127;61;20379;-63
2022/03/07 03:55:28;0.00;0.00;0.62;0.00;0.00;0.62;5.20;4.70;;;20.00;19.00;;;;;;2254116;61;20359;-63
2022/03/07 03:58:12;0.00;0.00;0.62;0.00;0.00;0.62;5.20;4.70;;;19.90;19.00;;;;;;2253778;61;20672;-63
2022/03/07 04:00:57;0.00;0.00;0.62;0.00;0.00;0.62;5.43;4.93;;;19.90;19.00;;;;;;2253436;61;20580;-62
2022/03/07 04:03:43;0.00;0.00;0.62;0.00;0.00;0.62;4.80;4.33;;;19.90;19.00;;;;;;2253693;61;20379;-63
2022/03/07 04:06:28;0.00;0.00;0.62;0.00;0.00;0.62;7.27;5.50;;;19.90;19.00;;;;;;2253720;61;20367;-63
2022/03/07 04:09:16;0.00;0.00;0.62;0.00;0.00;0.62;5.70;5.20;;;19.90;19.00;;;;;;2253740;61;20441;-63
2022/03/07 04:12:01;0.00;0.00;0.62;0.00;0.00;0.62;5.53;5.03;;;19.90;19.00;;;;;;2253576;61;20387;-62
2022/03/07 04:14:45;0.00;0.00;0.62;0.00;0.00;0.62;4.80;4.30;;;19.90;19.00;;;;;;2253197;61;20429;-62
2022/03/07 04:17:30;0.00;0.00;0.62;0.00;0.00;0.62;5.60;4.53;;;19.90;19.00;;;;;;2253937;61;20577;-62
2022/03/07 04:20:16;0.00;0.00;0.62;0.00;0.00;0.62;6.00;5.30;;;19.80;18.90;;;;;;2253570;61;20348;-62
2022/03/07 04:23:01;0.00;0.00;0.62;0.00;0.00;0.62;5.50;4.90;;;19.80;18.90;;;;;;2253427;61;20450;-60
2022/03/07 04:25:45;0.00;0.00;0.62;0.00;0.00;0.62;6.43;5.03;;;19.80;18.90;;;;;;2253897;61;20581;-62
2022/03/07 04:28:30;0.00;0.00;0.62;0.00;0.00;0.62;5.10;4.67;;;19.80;19.00;;;;;;2253493;61;20411;-62
2022/03/07 04:31:14;0.00;0.00;0.62;0.00;0.00;0.62;5.57;5.07;;;19.80;19.00;;;;;;2253546;61;20760;-63
2022/03/07 04:33:59;0.00;0.00;0.62;0.00;0.00;0.62;5.63;5.13;;;19.80;19.00;;;;;;2253453;61;20368;-62
2022/03/07 04:36:45;0.00;0.00;0.62;0.00;0.00;0.62;5.10;4.40;;;19.80;19.00;;;;;;2253094;61;20380;-63
2022/03/07 04:39:29;0.00;0.00;0.62;0.00;0.00;0.62;5.40;4.90;;;19.70;19.00;;;;;;2253939;61;20443;-62
2022/03/07 04:42:15;0.00;0.00;0.62;0.00;0.00;0.62;6.37;5.77;;;19.70;19.00;;;;;;2253245;61;20451;-63
2022/03/07 04:44:59;0.00;0.00;0.62;0.00;0.00;0.62;5.43;4.93;;;19.70;19.00;;;;;;2253236;61;20363;-62
2022/03/07 04:47:44;0.00;0.00;0.62;0.00;0.00;0.62;5.83;5.33;;;19.70;19.00;;;;;;2253896;61;20415;-63
2022/03/07 04:50:28;0.00;0.00;0.62;0.00;0.00;0.62;5.63;5.03;;;19.70;19.00;;;;;;2253183;61;20386;-62
2022/03/07 04:53:14;0.00;0.00;0.62;0.00;0.00;0.62;5.57;5.07;;;19.70;19.00;;;;;;2253440;61;20601;-62
2022/03/07 04:55:59;0.00;0.00;0.62;0.00;0.00;0.62;5.10;4.70;;;19.70;19.00;;;;;;2253516;61;20758;-63
2022/03/07 04:58:43;0.00;0.00;0.62;0.00;0.00;0.62;6.20;5.60;;;19.70;19.00;;;;;;2253092;61;20360;-62
2022/03/07 05:01:27;0.00;0.00;0.62;0.00;0.00;0.62;5.67;5.17;;;19.60;18.90;;;;;;2253717;61;20435;-61
2022/03/07 05:04:12;0.00;0.00;0.62;0.00;0.00;0.62;5.53;5.10;;;19.60;19.00;;;;;;2253403;61;20403;-61
2022/03/07 05:06:57;0.00;0.00;0.62;0.00;0.00;0.62;6.80;5.00;;;19.60;19.00;;;;;;2253240;61;20438;-60
2022/03/07 05:09:44;0.00;0.00;0.62;0.00;0.00;0.62;6.70;5.20;;;19.60;19.00;;;;;;2253315;61;20736;-61
2022/03/07 05:12:29;0.00;0.00;0.62;0.00;0.00;0.62;5.17;4.70;;;19.60;19.00;;;;;;2253015;61;20392;-61
2022/03/07 05:15:14;0.00;0.00;0.62;0.00;0.00;0.62;5.30;4.80;;;19.60;18.90;;;;;;2253530;61;20387;-61
2022/03/07 05:17:59;0.00;0.00;0.62;0.00;0.00;0.62;5.30;4.60;;;19.50;18.90;;;;;;2253437;61;20375;-62
2022/03/07 05:20:43;0.00;0.00;0.62;0.00;0.00;0.62;5.03;4.63;;;19.50;18.90;;;;;;2253320;61;20355;-61
2022/03/07 05:23:28;0.00;0.00;0.62;0.00;0.00;0.62;6.33;5.10;;;19.50;19.00;;;;;;2253599;61;20387;-62
2022/03/07 05:26:14;0.00;0.00;0.62;0.00;0.00;0.62;5.37;4.87;;;19.50;19.00;;;;;;2482028;53;20356;-60
2022/03/07 05:28:59;0.00;0.00;0.62;0.00;0.00;0.62;6.10;5.50;;;19.50;19.00;;;;;;2251544;61;20391;-59
2022/03/07 05:31:44;0.00;0.00;0.62;0.00;0.00;0.62;5.07;4.57;;;19.50;19.00;;;;;;2253557;61;20433;-62
2022/03/07 05:34:28;0.00;0.00;0.62;0.00;0.00;0.62;5.30;4.80;;;19.50;19.00;;;;;;2253159;61;20411;-61
2022/03/07 05:37:13;0.00;0.00;0.62;0.00;0.00;0.62;5.90;5.30;;;19.40;18.90;;;;;;2253368;61;20363;-61
2022/03/07 05:39:57;0.00;0.00;0.62;0.00;0.00;0.62;6.07;5.47;;;19.40;18.90;;;;;;2253430;61;20399;-60
2022/03/07 05:42:44;0.00;0.00;0.62;0.00;0.00;0.62;5.90;5.30;;;19.40;18.90;;;;;;2253067;61;20755;-61
2022/03/07 05:45:29;0.00;0.00;0.62;0.00;0.00;0.62;5.60;5.10;;;19.40;18.80;;;;;;2253677;61;20732;-62
2022/03/07 05:48:14;0.00;0.00;0.62;0.00;0.00;0.62;6.27;5.67;;;19.40;18.80;;;;;;2253402;61;20611;-62
2022/03/07 05:50:58;0.00;0.00;0.62;0.00;0.00;0.62;5.60;5.10;;;19.40;18.80;;;;;;2252838;61;20767;-62
2022/03/07 05:53:43;0.00;0.00;0.62;0.00;0.00;0.62;4.97;4.57;;;19.40;18.80;;;;;;2253593;61;20423;-63
2022/03/07 05:56:27;0.00;0.00;0.62;0.00;0.00;0.62;5.67;5.13;;;19.30;18.70;;;;;;2253351;61;20399;-65
2022/03/07 05:59:13;0.00;0.00;0.62;0.00;0.00;0.62;6.37;5.70;;;19.30;18.70;;;;;;2253311;61;20354;-62
2022/03/07 06:01:58;0.00;0.00;0.62;0.00;0.00;0.62;5.33;4.80;;;19.30;18.80;;;;;;2254122;61;20634;-63
2022/03/07 06:04:44;0.00;0.00;0.62;0.00;0.00;0.62;5.20;4.60;;;19.30;18.90;;;;;;2254086;61;20437;-62
2022/03/07 06:07:29;0.00;0.00;0.62;0.00;0.00;0.62;6.03;5.43;;;19.30;18.90;;;;;;2254196;61;20408;-62
2022/03/07 06:10:13;0.00;0.00;0.62;0.00;0.00;0.62;6.20;4.50;;;19.30;18.90;;;;;;2254074;61;20376;-62
2022/03/07 06:12:58;0.00;0.00;0.62;0.00;0.00;0.62;4.60;4.07;;;19.30;19.00;;;;;;2253729;61;20427;-63
2022/03/07 06:15:43;0.00;0.00;0.62;0.00;0.00;0.62;5.00;4.50;;;19.30;19.00;;;;;;2254264;61;20570;-61
2022/03/07 06:18:28;0.00;0.00;0.62;0.00;0.00;0.62;5.23;4.00;;;19.30;19.00;;;;;;2254157;61;20469;-62
2022/03/07 06:21:12;0.00;0.00;0.62;0.00;0.00;0.62;4.80;3.77;;;19.30;19.10;;;;;;2253691;61;20358;-63
2022/03/07 06:23:57;0.00;0.00;0.62;0.00;0.00;0.62;4.20;3.80;;;19.30;19.10;;;;;;2254249;61;20382;-62
2022/03/07 06:26:41;0.00;0.00;0.62;0.00;0.00;0.62;3.50;3.20;;;19.20;19.00;;;;;;2253841;61;20440;-63
2022/03/07 06:29:26;0.00;0.00;0.62;0.00;0.00;0.62;4.00;3.60;;;19.30;19.10;;;;;;2253844;61;20368;-64
2022/03/07 06:32:11;0.00;0.00;0.62;0.00;0.00;0.62;3.80;3.40;;;19.30;19.10;;;;;;2253859;61;20411;-64
2022/03/07 06:34:56;0.00;0.00;0.62;0.00;0.00;0.62;4.00;3.40;;;19.20;19.10;;;;;;2253607;61;20439;-63
2022/03/07 06:37:46;0.00;0.00;0.62;0.00;0.00;0.62;3.87;3.40;;;19.20;19.10;;;;;;2254270;61;20391;-61
2022/03/07 06:40:31;0.00;0.00;0.62;0.00;0.00;0.62;4.77;3.50;;;19.30;19.20;;;;;;2253987;61;20355;-63
2022/03/07 06:43:15;0.00;0.00;0.62;0.00;0.00;0.62;3.80;3.40;;;19.30;19.20;;;;;;2253565;61;20379;-62
2022/03/07 06:46:01;0.00;0.00;0.62;0.00;0.00;0.62;3.40;3.00;;;19.20;19.20;;;;;;2254240;61;20400;-64
2022/03/07 06:48:47;0.00;0.00;0.62;0.00;0.00;0.62;3.57;3.03;;;19.30;19.30;;;;;;2253675;61;20395;-63
2022/03/07 06:51:31;0.00;0.00;0.62;0.00;0.00;0.62;4.10;3.40;;;19.30;19.30;;;;;;2253454;61;20575;-63
2022/03/07 06:54:16;0.00;0.00;0.62;0.00;0.00;0.62;3.87;3.00;;;19.30;19.30;;;;;;2253902;61;20436;-64
2022/03/07 06:57:00;0.00;0.00;0.62;0.00;0.00;0.62;3.40;3.07;;;19.30;19.30;;;;;;2253633;61;20364;-64
2022/03/07 06:59:45;0.00;0.00;0.62;0.00;0.00;0.62;3.10;2.67;;;19.30;19.30;;;;;;2254126;61;20360;-62
2022/03/07 07:02:30;0.00;0.00;0.62;0.00;0.00;0.62;2.70;2.40;;;19.30;19.30;;;;;;2253802;61;20407;-63
2022/03/07 07:05:16;0.00;0.00;0.62;0.00;0.00;0.62;3.17;2.50;;;19.30;19.40;;;;;;2253689;61;20383;-63
2022/03/07 07:08:01;0.00;0.00;0.62;0.00;0.00;0.62;3.17;2.87;;;19.30;19.40;;;;;;2254164;61;20388;-63
2022/03/07 07:10:45;0.00;0.00;0.62;0.00;0.00;0.62;3.63;3.20;;;19.30;19.40;;;;;;2253692;61;20355;-63
2022/03/07 07:13:30;0.00;0.00;0.62;0.00;0.00;0.62;4.03;2.80;;;19.30;19.40;;;;;;2253732;61;20384;-63
2022/03/07 07:16:14;0.00;0.00;0.62;0.00;0.00;0.62;3.70;2.90;;;19.30;19.40;;;;;;2253787;61;20359;-62
2022/03/07 07:18:40;0.00;0.00;0.62;0.00;0.00;0.62;3.13;2.80;;;19.30;19.40;;;;;;2253816;61;20424;-63
2022/03/07 07:21:26;0.00;0.00;0.62;0.00;0.00;0.62;4.27;2.07;;;19.30;19.40;;;;;;2253879;61;20432;-63
2022/03/07 07:24:11;0.00;0.00;0.62;0.00;0.00;0.62;2.60;2.30;;;19.30;19.40;;;;;;2253838;61;20367;-63
2022/03/07 07:26:56;0.00;0.00;0.62;0.00;0.00;0.62;2.40;2.20;;;19.40;19.50;;;;;;2253332;61;20773;-62
2022/03/07 07:29:40;0.00;0.00;0.62;0.00;0.00;0.62;2.50;2.23;;;19.30;19.50;;;;;;2254151;61;20403;-63
2022/03/07 07:32:25;0.00;0.00;0.62;0.00;0.00;0.62;3.67;2.70;;;19.30;19.50;;;;;;2585599;45;20383;-63
2022/03/07 07:35:10;0.00;0.00;0.62;0.00;0.00;0.62;2.83;2.50;;;19.40;19.50;;;;;;2253410;61;20388;-64
2022/03/07 07:37:56;0.00;0.00;0.62;0.00;0.00;0.62;2.43;2.20;;;19.40;19.50;;;;;;2254050;61;20360;-62
2022/03/07 07:40:41;0.00;0.00;0.62;0.00;0.00;0.62;2.93;2.50;;;19.40;19.50;;;;;;2253676;61;20352;-63
2022/03/07 07:43:26;0.00;0.00;0.62;0.00;0.00;0.62;2.20;2.00;;;19.40;19.50;;;;;;2253751;61;20395;-64
2022/03/07 07:46:11;0.00;0.00;0.62;0.00;0.00;0.62;2.27;2.07;;;19.40;19.50;;;;;;2253844;61;20591;-62
2022/03/07 07:48:56;0.00;0.00;0.62;0.00;0.00;0.62;2.80;2.10;;;19.40;19.50;;;;;;2253440;61;20815;-62
2022/03/07 07:51:40;0.00;0.00;0.62;0.00;0.00;0.62;2.50;2.13;;;19.50;19.60;;;;;;2253987;61;20355;-62
2022/03/07 07:54:29;0.00;0.00;0.62;0.00;0.00;0.62;3.33;2.53;;;19.40;19.50;;;;;;2253764;61;20360;-63
2022/03/07 07:57:14;0.00;0.00;0.62;0.00;0.00;0.62;3.00;2.20;;;19.50;19.60;;;;;;2253387;61;20360;-62
2022/03/07 07:59:58;0.00;0.00;0.62;0.00;0.00;0.62;2.30;2.00;;;19.50;19.60;;;;;;2254123;61;20572;-63
2022/03/07 08:02:43;0.00;0.00;0.62;0.00;0.00;0.62;2.43;1.97;;;19.50;19.60;;;;;;2253299;61;20375;-63
2022/03/07 08:05:28;0.00;0.00;0.62;0.00;0.00;0.62;2.53;2.10;;;19.50;19.60;;;;;;2253776;61;20412;-62
2022/03/07 08:08:13;0.00;0.00;0.62;0.00;0.00;0.62;2.70;2.17;;;19.50;19.60;;;;;;2253701;61;20475;-62
2022/03/07 08:10:58;0.00;0.00;0.62;0.00;0.00;0.62;2.33;2.13;;;19.50;19.60;;;;;;2253414;61;20344;-62
2022/03/07 08:13:43;0.00;0.00;0.62;0.00;0.00;0.62;2.40;2.20;;;19.50;19.60;;;;;;2253948;61;20736;-62
2022/03/07 08:16:27;0.00;0.00;0.62;0.00;0.00;0.62;2.70;2.00;;;19.50;19.60;;;;;;2253614;61;20724;-62
2022/03/07 08:19:12;0.00;0.00;0.62;0.00;0.00;0.62;2.13;1.60;;;19.60;19.70;;;;;;2253367;61;20384;-63
2022/03/07 08:21:56;0.00;0.00;0.62;0.00;0.00;0.62;2.10;1.80;;;19.60;19.70;;;;;;2253806;61;20456;-64
2022/03/07 08:24:41;0.00;0.00;0.62;0.00;0.00;0.62;2.57;2.10;;;19.60;19.70;;;;;;2252944;61;20445;-64
2022/03/07 08:27:27;0.00;0.00;0.62;0.00;0.00;0.62;2.40;2.17;;;19.60;19.70;;;;;;2253604;61;20598;-63
2022/03/07 08:30:14;0.00;0.00;0.62;0.00;0.00;0.62;2.40;1.97;;;19.60;19.70;;;;;;2253698;61;20411;-63
2022/03/07 08:32:59;0.00;0.00;0.62;0.00;0.00;0.62;2.10;1.90;;;19.70;19.80;;;;;;2253407;61;20617;-64
2022/03/07 08:35:43;0.00;0.00;0.62;0.00;0.00;0.62;2.30;1.80;;;19.60;19.70;;;;;;2253853;61;20360;-63
2022/03/07 08:38:28;0.00;0.00;0.62;0.00;0.00;0.62;3.57;2.10;;;19.70;19.80;;;;;;2253345;61;20364;-63
2022/03/07 08:41:13;0.00;0.00;0.62;0.00;0.00;0.62;1.87;1.57;;;19.70;19.80;;;;;;2253142;61;20364;-63
2022/03/07 08:43:59;0.00;0.00;0.62;0.00;0.00;0.62;2.47;1.90;;;19.70;19.80;;;;;;2253863;61;20383;-63
2022/03/07 08:46:43;0.00;0.00;0.62;0.00;0.00;0.62;2.13;1.83;;;19.70;19.80;;;;;;2253549;61;20367;-62
2022/03/07 08:49:28;0.00;0.00;0.62;0.00;0.00;0.62;2.10;1.70;;;19.70;19.80;;;;;;2253672;61;20403;-63
2022/03/07 08:52:15;0.00;0.00;0.62;0.00;0.00;0.62;2.30;1.90;;;19.70;19.80;;;;;;2253648;61;20407;-60
2022/03/07 08:54:59;0.00;0.00;0.62;0.00;0.00;0.62;2.27;1.90;;;19.80;19.90;;;;;;2253570;61;20657;-63
2022/03/07 08:57:44;0.00;0.00;0.62;0.00;0.00;0.62;2.57;2.37;;;19.80;19.90;;;;;;2253674;61;20391;-62
2022/03/07 09:00:30;0.00;0.00;0.62;0.00;0.00;0.62;3.00;2.20;;;19.80;19.90;;;;;;2253562;61;20368;-63
2022/03/07 09:03:15;0.00;0.00;0.62;0.00;0.00;0.62;2.50;1.70;;;19.80;19.90;;;;;;2253163;61;20383;-63
2022/03/07 09:05:59;0.00;0.00;0.62;0.00;0.00;0.62;3.00;1.70;;;19.90;19.90;;;;;;2253843;61;20387;-62
2022/03/07 09:08:44;0.00;0.00;0.62;0.00;0.00;0.62;2.30;1.87;;;19.90;19.90;;;;;;2253462;61;20387;-63
2022/03/07 09:11:28;0.00;0.00;0.62;0.00;0.00;0.62;2.70;1.93;;;19.90;19.90;;;;;;2253278;61;20680;-63
2022/03/07 09:14:13;0.00;0.00;0.62;0.00;0.00;0.62;2.50;2.00;;;19.90;20.00;;;;;;2253738;61;20391;-62
2022/03/07 09:16:59;0.00;0.00;0.62;0.00;0.00;0.62;2.27;1.83;;;19.90;20.00;;;;;;2253674;61;20395;-63
2022/03/07 09:19:44;0.00;0.00;0.62;0.00;0.00;0.62;3.03;2.43;;;20.00;20.00;;;;;;2253650;61;20366;-64
2022/03/07 09:22:28;0.00;0.00;0.62;0.00;0.00;0.62;2.27;1.83;;;20.00;20.00;;;;;;2253274;61;20383;-63
2022/03/07 09:25:14;0.00;0.00;0.62;0.00;0.00;0.62;2.03;1.83;;;20.00;20.00;;;;;;2253138;61;20415;-62
2022/03/07 09:27:59;0.00;0.00;0.62;0.00;0.00;0.62;2.60;2.20;;;20.00;20.00;;;;;;2253707;61;20707;-62
2022/03/07 09:30:43;0.00;0.00;0.62;0.00;0.00;0.62;2.70;2.40;;;20.00;20.00;;;;;;2253558;61;20371;-62
2022/03/07 09:33:29;0.00;0.00;0.62;0.00;0.00;0.62;2.90;2.00;;;20.10;20.00;;;;;;2253143;61;20601;-62
2022/03/07 09:36:14;0.00;0.00;0.62;0.00;0.00;0.62;2.50;2.00;;;20.10;20.60;;;;;;2254357;61;20517;-64
2022/03/07 09:38:58;0.00;0.00;0.62;0.00;0.00;0.62;2.40;1.90;;;20.10;20.00;;;;;;2254654;61;20418;-63
2022/03/07 09:41:43;0.00;0.00;0.62;0.00;0.00;0.62;2.20;1.67;;;20.10;20.00;;;;;;2254738;61;20755;-63
2022/03/07 09:44:28;0.00;0.00;0.62;0.00;0.00;0.62;2.60;1.90;;;20.10;20.00;;;;;;2254714;61;20744;-63
2022/03/07 09:47:14;0.00;0.00;0.62;0.00;0.00;0.62;2.47;1.63;;;20.10;20.00;;;;;;2254070;61;20483;-63
2022/03/07 09:50:01;0.00;0.00;0.62;0.00;0.00;0.62;2.70;1.87;;;20.20;20.10;;;;;;2255010;61;20367;-62
2022/03/07 09:52:46;0.00;0.00;0.62;0.00;0.00;0.62;2.30;2.10;;;20.20;20.10;;;;;;2254584;61;20387;-60
2022/03/07 09:55:31;0.00;0.00;0.62;0.00;0.00;0.62;2.60;1.90;;;20.20;20.10;;;;;;2254496;61;20379;-63
2022/03/07 09:58:16;0.00;0.00;0.62;0.00;0.00;0.62;2.30;1.80;;;20.20;20.10;;;;;;2255022;61;20351;-61
2022/03/07 10:01:09;0.00;0.00;0.62;0.00;0.00;0.62;2.87;2.23;;;20.30;20.20;;;;;;2254372;61;20578;-60
2022/03/07 10:04:05;0.00;0.00;0.62;0.00;0.00;0.62;2.07;1.40;;;20.30;20.20;;;;;;2254711;61;20459;-61
2022/03/07 10:06:51;0.00;0.00;0.62;0.00;0.00;0.62;2.13;1.50;;;20.30;20.10;;;;;;2254782;61;20387;-61
2022/03/07 10:09:36;0.00;0.00;0.62;0.00;0.00;0.62;2.63;2.10;;;20.30;20.20;;;;;;2254359;61;20386;-61
2022/03/07 10:12:28;0.00;0.00;0.62;0.00;0.00;0.62;2.67;1.87;;;20.30;20.20;;;;;;2254868;61;20422;-62
2022/03/07 10:15:15;0.00;0.00;0.62;0.00;0.00;0.62;2.50;2.13;;;20.30;20.20;;;;;;2254730;61;20363;-64
2022/03/07 10:17:59;0.00;0.00;0.62;0.00;0.00;0.62;1.93;1.60;;;20.40;20.30;;;;;;2254453;61;20363;-62
2022/03/07 10:20:49;0.00;0.00;0.62;0.00;0.00;0.62;1.97;1.57;;;20.40;20.20;;;;;;2255024;61;20363;-63
2022/03/07 10:23:35;0.00;0.00;0.62;0.00;0.00;0.62;2.37;1.67;;;20.40;20.30;;;;;;2254641;61;20636;-63
2022/03/07 10:26:20;0.00;0.00;0.62;0.00;0.00;0.62;2.87;1.87;;;20.40;20.30;;;;;;2254692;61;20472;-63
2022/03/07 10:29:06;0.00;0.00;0.62;0.00;0.00;0.62;2.40;1.80;;;20.40;20.30;;;;;;2254439;61;20446;-63
2022/03/07 10:31:51;0.00;0.00;0.62;0.00;0.00;0.62;2.80;2.00;;;20.50;20.30;;;;;;2254176;61;20398;-63
2022/03/07 10:34:36;0.00;0.00;0.62;0.00;0.00;0.62;3.07;1.70;;;20.50;20.30;;;;;;2254955;61;20359;-63
2022/03/07 10:37:32;0.00;0.00;0.62;0.00;0.00;0.62;2.40;1.87;;;20.50;20.30;;;;;;2254294;61;20696;-63
2022/03/07 10:40:21;0.00;0.00;0.62;0.00;0.00;0.62;2.50;1.80;;;20.60;20.40;;;;;;2254487;61;20482;-59
2022/03/07 10:43:07;0.00;0.00;0.62;0.00;0.00;0.62;1.70;1.50;;;20.60;20.40;;;;;;2254869;61;20717;-61
2022/03/07 10:45:55;0.00;0.00;0.62;0.00;0.00;0.62;2.40;1.90;;;20.60;20.40;;;;;;2254631;61;20364;-63
2022/03/07 10:48:43;0.00;0.00;0.62;0.00;0.00;0.62;3.30;2.00;;;20.60;20.40;;;;;;2253899;61;20469;-60
2022/03/07 10:51:29;0.00;0.00;0.62;0.00;0.00;0.62;2.63;1.93;;;20.60;20.40;;;;;;2253873;61;20363;-63